Metar Aviation Weather Data LICT Vincenzo Florio Trapani-Birgi

26°C Temp
23°C Dewpoint
84% Humidity
Temperature
21 KM/H
13 MPH
11 KTS
160°
South South
East

Wind Speed
Mostly Scattered
Clouds
Pressure 1017 (hPa) - 30.03 (in)
Visibility 6.2 (mi) - 10 (km)

Current Conditions
LICT
Vincenzo Florio Trapani-Birgi
Metar :LICT 190655Z 16011KT 9999 SCT010 26/23 Q1017 RMK SCT VIS MIN 9999 WIND THR13 14011KT 120V190 BLU
Wed 19th September 08:55 am

Vincenzo Florio Trapani-Birgi
  Metar Aviation API Data Provided by https://www.checkwx.com/ PHP scripts by weather34.com ©2018